Time;durP1;ratioP1;P1;durP2;ratioP2;P2;SDS_P1;SDS_P2;PMS_P1;PMS_P2;Temp;Humidity;BMP_temperature;BMP_pressure;BME280_temperature;BME280_humidity;BME280_pressure;Samples;Min_cycle;Max_cycle;Signal;HPM_P1;HPM_P2
2022/05/04 00:00:20;;;;;;;;;;;;;;;;;;5049542;28;19924;-85
2022/05/04 00:03:06;;;;;;;;;;;;;;;;;;5050075;28;19913;-85
2022/05/04 00:05:53;;;;;;;;;;;;;;;;;;5047512;28;19916;-87
2022/05/04 00:08:39;;;;;;;;;;;;;;;;;;5043189;28;19913;-84
2022/05/04 00:11:26;;;;;;;;;;;;;;;;;;5045943;28;19919;-84
2022/05/04 00:14:12;;;;;;;;;;;;;;;;;;5043678;28;19916;-85
2022/05/04 00:16:59;;;;;;;;;;;;;;;;;;5050481;28;19919;-85
2022/05/04 00:19:45;;;;;;;;;;;;;;;;;;5044079;28;19918;-85
2022/05/04 00:22:32;;;;;;;;;;;;;;;;;;5049377;28;19920;-84
2022/05/04 00:25:18;;;;;;;;;;;;;;;;;;5044552;28;19936;-85
2022/05/04 00:28:05;;;;;;;;;;;;;;;;;;5046907;28;20012;-84
2022/05/04 00:30:52;;;;;;;;;;;;;;;;;;5042733;28;20582;-84
2022/05/04 00:33:39;;;;;;;;;;;;;;;;;;5043718;28;19921;-85
2022/05/04 00:36:25;;;;;;;;;;;;;;;;;;5044742;28;19916;-84
2022/05/04 00:39:12;;;;;;;;;;;;;;;;;;5043363;28;19917;-83
2022/05/04 00:41:58;;;;;;;;;;;;;;;;;;5048844;28;19913;-84
2022/05/04 00:44:45;;;;;;;;;;;;;;;;;;5043048;28;19919;-84
2022/05/04 00:47:31;;;;;;;;;;;;;;;;;;5039510;28;20284;-83
2022/05/04 00:50:18;;;;;;;;;;;;;;;;;;5034030;28;20232;-83
2022/05/04 00:53:04;;;;;;;;;;;;;;;;;;5054566;28;19916;-83
2022/05/04 00:55:51;;;;;;;;;;;;;;;;;;5046648;28;19913;-83
2022/05/04 00:58:55;;;;;;;;;;;;;;;;;;5050551;28;19925;-84
2022/05/04 01:01:42;;;;;;;;;;;;;;;;;;5040942;28;19913;-84
2022/05/04 01:04:28;;;;;;;;;;;;;;;;;;5049795;28;19916;-82
2022/05/04 01:07:18;;;;;;;;;;;;;;;;;;5054335;28;19950;-83
2022/05/04 01:10:04;;;;;;;;;;;;;;;;;;5051922;28;19919;-83
2022/05/04 01:12:51;;;;;;;;;;;;;;;;;;5053918;28;19908;-85
2022/05/04 01:15:37;;;;;;;;;;;;;;;;;;5049185;28;19920;-85
2022/05/04 01:18:24;;;;;;;;;;;;;;;;;;5048175;28;19913;-83
2022/05/04 01:21:10;;;;;;;;;;;;;;;;;;5041285;28;19920;-84
2022/05/04 01:23:57;;;;;;;;;;;;;;;;;;5041179;28;19917;-84
2022/05/04 01:26:43;;;;;;;;;;;;;;;;;;5063745;28;19919;-83
2022/05/04 01:29:29;;;;;;;;;;;;;;;;;;5052367;28;20348;-85
2022/05/04 01:32:16;;;;;;;;;;;;;;;;;;5045175;28;19920;-86
2022/05/04 01:35:02;;;;;;;;;;;;;;;;;;5053727;28;19920;-86
2022/05/04 01:37:49;;;;;;;;;;;;;;;;;;5055263;28;19909;-86
2022/05/04 01:40:35;;;;;;;;;;;;;;;;;;5046617;28;19920;-86
2022/05/04 01:43:22;;;;;;;;;;;;;;;;;;5051647;28;20007;-86
2022/05/04 01:46:08;;;;;;;;;;;;;;;;;;5063694;28;20436;-84
2022/05/04 01:48:55;;;;;;;;;;;;;;;;;;5055216;28;19913;-85
2022/05/04 01:51:41;;;;;;;;;;;;;;;;;;5051371;28;19919;-84
2022/05/04 01:54:28;;;;;;;;;;;;;;;;;;5039012;28;19916;-85
2022/05/04 01:57:14;;;;;;;;;;;;;;;;;;5049910;28;19935;-84
2022/05/04 02:00:01;;;;;;;;;;;;;;;;;;5061743;28;19924;-84
2022/05/04 02:02:47;;;;;;;;;;;;;;;;;;5033269;28;19920;-84
2022/05/04 02:05:34;;;;;;;;;;;;;;;;;;5046917;28;20318;-84
2022/05/04 02:08:20;;;;;;;;;;;;;;;;;;5049678;28;19916;-84
2022/05/04 02:11:06;;;;;;;;;;;;;;;;;;5048210;28;20544;-84
2022/05/04 02:13:53;;;;;;;;;;;;;;;;;;5051298;28;19913;-84
2022/05/04 02:16:40;;;;;;;;;;;;;;;;;;5036107;28;19913;-86
2022/05/04 02:19:26;;;;;;;;;;;;;;;;;;5049975;28;20301;-86
2022/05/04 02:22:13;;;;;;;;;;;;;;;;;;5046250;28;19909;-85
2022/05/04 02:24:59;;;;;;;;;;;;;;;;;;5039001;28;19919;-84
2022/05/04 02:27:46;;;;;;;;;;;;;;;;;;5039411;28;20292;-84
2022/05/04 02:30:32;;;;;;;;;;;;;;;;;;5050195;28;19909;-84
2022/05/04 02:33:18;;;;;;;;;;;;;;;;;;5039499;28;19932;-83
2022/05/04 02:39:10;;;;;;;;;;;;;;;;;;5042420;28;19924;-83
2022/05/04 02:41:57;;;;;;;;;;;;;;;;;;5031893;28;20073;-84
2022/05/04 02:44:43;;;;;;;;;;;;;;;;;;5037373;28;20554;-84
2022/05/04 02:47:30;;;;;;;;;;;;;;;;;;5049892;28;19923;-84
2022/05/04 02:50:16;;;;;;;;;;;;;;;;;;5063345;28;19916;-84
2022/05/04 02:53:04;;;;;;;;;;;;;;;;;;5051027;28;19909;-83
2022/05/04 02:55:50;;;;;;;;;;;;;;;;;;5048708;28;19909;-83
2022/05/04 02:58:37;;;;;;;;;;;;;;;;;;5048416;28;19927;-83
2022/05/04 03:04:29;;;;;;;;;;;;;;;;;;5050150;28;19909;-84
2022/05/04 03:07:15;;;;;;;;;;;;;;;;;;5036268;28;20333;-85
2022/05/04 03:10:02;;;;;;;;;;;;;;;;;;5040672;28;19909;-85
2022/05/04 03:12:48;;;;;;;;;;;;;;;;;;5046235;28;19917;-81
2022/05/04 03:15:35;;;;;;;;;;;;;;;;;;5043990;28;20292;-81
2022/05/04 03:18:29;;;;;;;;;;;;;;;;;;5029543;28;19956;-82
2022/05/04 03:21:15;;;;;;;;;;;;;;;;;;5041512;28;19921;-83
2022/05/04 03:24:02;;;;;;;;;;;;;;;;;;5038910;28;19913;-81
2022/05/04 03:26:48;;;;;;;;;;;;;;;;;;5035823;28;19913;-82
2022/05/04 03:29:35;;;;;;;;;;;;;;;;;;5037647;28;20885;-81
2022/05/04 03:32:21;;;;;;;;;;;;;;;;;;5041394;28;20386;-82
2022/05/04 03:35:08;;;;;;;;;;;;;;;;;;5045051;28;19929;-81
2022/05/04 03:37:54;;;;;;;;;;;;;;;;;;5040156;28;19913;-82
2022/05/04 03:40:41;;;;;;;;;;;;;;;;;;5042110;28;19917;-82
2022/05/04 03:43:27;;;;;;;;;;;;;;;;;;5037451;28;19913;-82
2022/05/04 03:46:14;;;;;;;;;;;;;;;;;;5059053;28;19909;-83
2022/05/04 03:49:01;;;;;;;;;;;;;;;;;;5042268;28;19917;-81
2022/05/04 03:51:48;;;;;;;;;;;;;;;;;;5042655;28;19913;-81
2022/05/04 03:54:34;;;;;;;;;;;;;;;;;;5041013;28;19920;-82
2022/05/04 03:57:21;;;;;;;;;;;;;;;;;;5042529;28;19916;-81
2022/05/04 04:00:09;;;;;;;;;;;;;;;;;;5039080;28;19921;-83
2022/05/04 04:02:56;;;;;;;;;;;;;;;;;;5040098;28;19938;-84
2022/05/04 04:05:42;;;;;;;;;;;;;;;;;;5043666;28;19909;-80
2022/05/04 04:08:29;;;;;;;;;;;;;;;;;;5045982;28;19916;-84
2022/05/04 04:11:15;;;;;;;;;;;;;;;;;;5051721;28;19909;-81
2022/05/04 04:14:02;;;;;;;;;;;;;;;;;;5057172;28;19966;-81
2022/05/04 04:16:48;;;;;;;;;;;;;;;;;;5047185;28;19936;-81
2022/05/04 04:19:35;;;;;;;;;;;;;;;;;;5050057;28;20244;-82
2022/05/04 04:22:21;;;;;;;;;;;;;;;;;;5037751;28;20002;-81
2022/05/04 04:25:08;;;;;;;;;;;;;;;;;;5051027;28;20327;-80
2022/05/04 04:27:54;;;;;;;;;;;;;;;;;;5037085;28;19915;-81
2022/05/04 04:30:41;;;;;;;;;;;;;;;;;;5042206;28;19916;-80
2022/05/04 04:33:28;;;;;;;;;;;;;;;;;;5038589;28;20572;-79
2022/05/04 04:36:15;;;;;;;;;;;;;;;;;;5046545;28;19928;-81
2022/05/04 04:39:01;;;;;;;;;;;;;;;;;;5048904;28;20008;-81
2022/05/04 04:41:49;;;;;;;;;;;;;;;;;;5035992;28;19920;-80
2022/05/04 04:44:35;;;;;;;;;;;;;;;;;;5045199;28;19920;-81
2022/05/04 04:47:21;;;;;;;;;;;;;;;;;;5034084;28;19919;-82
2022/05/04 04:50:08;;;;;;;;;;;;;;;;;;5052514;28;20470;-83
2022/05/04 04:52:54;;;;;;;;;;;;;;;;;;5028042;28;19921;-81
2022/05/04 04:55:41;;;;;;;;;;;;;;;;;;5048479;28;19912;-80
2022/05/04 04:58:27;;;;;;;;;;;;;;;;;;5048130;28;20317;-81
2022/05/04 05:01:14;;;;;;;;;;;;;;;;;;5050606;28;19924;-81
2022/05/04 05:04:00;;;;;;;;;;;;;;;;;;5047130;28;20253;-81
2022/05/04 05:06:47;;;;;;;;;;;;;;;;;;5058644;28;20349;-82
2022/05/04 05:09:33;;;;;;;;;;;;;;;;;;5034742;28;19908;-82
2022/05/04 05:12:21;;;;;;;;;;;;;;;;;;5057203;28;19928;-81
2022/05/04 05:18:13;;;;;;;;;;;;;;;;;;5042590;28;19912;-82
2022/05/04 05:21:00;;;;;;;;;;;;;;;;;;5041221;28;19923;-81
2022/05/04 05:23:46;;;;;;;;;;;;;;;;;;5047831;28;20266;-81
2022/05/04 05:26:33;;;;;;;;;;;;;;;;;;5036756;28;19909;-82
2022/05/04 05:29:20;;;;;;;;;;;;;;;;;;5059267;28;19920;-82
2022/05/04 05:32:06;;;;;;;;;;;;;;;;;;5044078;28;19913;-81
2022/05/04 05:34:53;;;;;;;;;;;;;;;;;;5057984;28;20032;-81
2022/05/04 05:37:39;;;;;;;;;;;;;;;;;;5039317;28;19909;-80
2022/05/04 05:40:28;;;;;;;;;;;;;;;;;;5043676;28;20374;-81
2022/05/04 05:43:14;;;;;;;;;;;;;;;;;;5053961;28;19909;-81
2022/05/04 05:46:01;;;;;;;;;;;;;;;;;;5049732;28;19913;-80
2022/05/04 05:48:47;;;;;;;;;;;;;;;;;;5045270;28;19913;-80
2022/05/04 05:51:34;;;;;;;;;;;;;;;;;;5044794;28;20262;-81
2022/05/04 05:54:20;;;;;;;;;;;;;;;;;;5041544;28;20364;-80
2022/05/04 05:57:07;;;;;;;;;;;;;;;;;;5053255;28;19920;-81
2022/05/04 05:59:53;;;;;;;;;;;;;;;;;;5051324;28;19939;-82
2022/05/04 06:02:40;;;;;;;;;;;;;;;;;;5052198;28;19912;-81
2022/05/04 06:05:26;;;;;;;;;;;;;;;;;;5056191;28;19941;-81
2022/05/04 06:08:13;;;;;;;;;;;;;;;;;;5062500;28;20673;-81
2022/05/04 06:10:59;;;;;;;;;;;;;;;;;;5059150;28;19916;-80
2022/05/04 06:13:46;;;;;;;;;;;;;;;;;;5053127;28;20383;-79
2022/05/04 06:16:32;;;;;;;;;;;;;;;;;;5054137;28;19917;-80
2022/05/04 06:19:18;;;;;;;;;;;;;;;;;;5040824;28;19917;-79
2022/05/04 06:22:05;;;;;;;;;;;;;;;;;;5042017;28;19923;-80
2022/05/04 06:24:51;;;;;;;;;;;;;;;;;;5044033;28;19912;-81
2022/05/04 06:27:38;;;;;;;;;;;;;;;;;;5046380;28;20525;-79
2022/05/04 06:36:35;;;;;;;;;;;;;;;;;;5043599;28;19919;-81
2022/05/04 06:39:21;;;;;;;;;;;;;;;;;;5044196;28;19921;-79
2022/05/04 06:42:08;;;;;;;;;;;;;;;;;;5045380;28;19928;-80
2022/05/04 06:44:55;;;;;;;;;;;;;;;;;;5047750;28;19917;-80
2022/05/04 06:47:42;;;;;;;;;;;;;;;;;;5041735;28;20292;-80
2022/05/04 06:50:28;;;;;;;;;;;;;;;;;;5047660;28;19920;-80
2022/05/04 06:53:15;;;;;;;;;;;;;;;;;;5064651;28;19912;-81
2022/05/04 06:56:01;;;;;;;;;;;;;;;;;;5043249;28;19914;-81
2022/05/04 06:58:48;;;;;;;;;;;;;;;;;;5062023;28;20291;-81
2022/05/04 07:01:34;;;;;;;;;;;;;;;;;;5036564;28;19917;-81
2022/05/04 07:04:20;;;;;;;;;;;;;;;;;;5051846;28;19909;-81
2022/05/04 07:07:07;;;;;;;;;;;;;;;;;;5052684;28;19920;-81
2022/05/04 07:09:53;;;;;;;;;;;;;;;;;;5042769;28;19909;-82
2022/05/04 07:12:40;;;;;;;;;;;;;;;;;;5054055;28;20431;-80
2022/05/04 07:15:26;;;;;;;;;;;;;;;;;;5052986;28;20376;-80
2022/05/04 07:18:13;;;;;;;;;;;;;;;;;;5038566;28;19920;-82
2022/05/04 07:20:59;;;;;;;;;;;;;;;;;;5044039;28;19932;-82
2022/05/04 07:23:46;;;;;;;;;;;;;;;;;;5046884;28;19916;-81
2022/05/04 07:26:33;;;;;;;;;;;;;;;;;;5040243;28;19928;-82
2022/05/04 07:29:20;;;;;;;;;;;;;;;;;;5049904;28;20410;-80
2022/05/04 07:32:06;;;;;;;;;;;;;;;;;;5032793;28;20337;-81
2022/05/04 07:34:53;;;;;;;;;;;;;;;;;;5038110;28;19928;-81
2022/05/04 07:37:41;;;;;;;;;;;;;;;;;;5049772;28;20292;-82
2022/05/04 07:43:33;;;;;;;;;;;;;;;;;;5055581;28;20012;-81
2022/05/04 07:46:19;;;;;;;;;;;;;;;;;;5057405;28;19924;-81
2022/05/04 07:49:06;;;;;;;;;;;;;;;;;;5038907;28;19916;-81
2022/05/04 07:51:53;;;;;;;;;;;;;;;;;;5049203;28;19908;-81
2022/05/04 07:54:39;;;;;;;;;;;;;;;;;;5047258;28;19919;-80
2022/05/04 07:57:25;;;;;;;;;;;;;;;;;;5054564;28;19920;-81
2022/05/04 08:06:23;;;;;;;;;;;;;;;;;;5031001;28;19910;-81
2022/05/04 08:09:09;;;;;;;;;;;;;;;;;;5033870;28;19958;-81
2022/05/04 08:11:56;;;;;;;;;;;;;;;;;;5038503;28;19909;-81
2022/05/04 08:14:42;;;;;;;;;;;;;;;;;;5034454;28;19951;-81
2022/05/04 08:17:29;;;;;;;;;;;;;;;;;;5033647;28;19948;-81
2022/05/04 08:20:16;;;;;;;;;;;;;;;;;;5031563;28;20369;-81
2022/05/04 08:23:02;;;;;;;;;;;;;;;;;;5033373;28;19909;-81
2022/05/04 08:25:50;;;;;;;;;;;;;;;;;;5033513;28;19917;-81
2022/05/04 08:28:36;;;;;;;;;;;;;;;;;;5046150;28;19915;-81
2022/05/04 08:31:23;;;;;;;;;;;;;;;;;;5031016;28;19909;-82
2022/05/04 08:34:09;;;;;;;;;;;;;;;;;;5045250;28;19924;-82
2022/05/04 08:36:56;;;;;;;;;;;;;;;;;;5036301;28;19929;-82
2022/05/04 08:39:42;;;;;;;;;;;;;;;;;;5049395;28;19917;-82
2022/05/04 08:42:29;;;;;;;;;;;;;;;;;;5032284;28;19913;-81
2022/05/04 08:45:15;;;;;;;;;;;;;;;;;;5037872;28;19917;-82
2022/05/04 08:48:03;;;;;;;;;;;;;;;;;;5034375;28;19913;-82
2022/05/04 08:50:49;;;;;;;;;;;;;;;;;;5045248;28;20384;-82
2022/05/04 08:53:36;;;;;;;;;;;;;;;;;;5033706;28;20362;-80
2022/05/04 08:56:23;;;;;;;;;;;;;;;;;;5042506;28;19917;-82
2022/05/04 08:59:09;;;;;;;;;;;;;;;;;;5037109;28;19921;-81
2022/05/04 09:01:56;;;;;;;;;;;;;;;;;;5060028;28;19923;-80
2022/05/04 09:04:42;;;;;;;;;;;;;;;;;;5036215;28;19909;-79
2022/05/04 09:07:29;;;;;;;;;;;;;;;;;;5036587;28;19913;-79
2022/05/04 09:10:16;;;;;;;;;;;;;;;;;;5041895;28;19913;-80
2022/05/04 09:13:03;;;;;;;;;;;;;;;;;;5050461;28;19958;-82
2022/05/04 09:15:51;;;;;;;;;;;;;;;;;;5039454;28;20365;-81
2022/05/04 09:18:37;;;;;;;;;;;;;;;;;;5052352;28;19909;-82
2022/05/04 09:21:24;;;;;;;;;;;;;;;;;;5046633;28;19923;-80
2022/05/04 09:24:10;;;;;;;;;;;;;;;;;;5035534;28;19917;-81
2022/05/04 09:26:57;;;;;;;;;;;;;;;;;;5036114;28;20302;-81
2022/05/04 09:29:43;;;;;;;;;;;;;;;;;;5047865;28;19919;-81
2022/05/04 09:32:30;;;;;;;;;;;;;;;;;;5052934;28;19909;-81
2022/05/04 09:35:16;;;;;;;;;;;;;;;;;;5033729;28;19925;-81
2022/05/04 09:47:20;;;;;;;;;;;;;;;;;;5041316;28;20411;-82
2022/05/04 09:50:06;;;;;;;;;;;;;;;;;;5039765;28;19916;-81
2022/05/04 09:52:53;;;;;;;;;;;;;;;;;;5050591;28;19928;-81
2022/05/04 09:55:39;;;;;;;;;;;;;;;;;;5040207;28;19919;-84
2022/05/04 09:58:26;;;;;;;;;;;;;;;;;;5063281;28;19909;-83
2022/05/04 10:01:13;;;;;;;;;;;;;;;;;;5035791;28;19925;-84
2022/05/04 10:04:00;;;;;;;;;;;;;;;;;;5035610;28;20455;-84
2022/05/04 10:06:46;;;;;;;;;;;;;;;;;;5036593;28;19916;-84
2022/05/04 10:09:33;;;;;;;;;;;;;;;;;;5057017;28;19908;-85
2022/05/04 10:12:20;;;;;;;;;;;;;;;;;;5052049;28;19916;-83
2022/05/04 10:15:07;;;;;;;;;;;;;;;;;;5040829;28;19920;-83
2022/05/04 10:17:54;;;;;;;;;;;;;;;;;;5047309;28;19913;-83
2022/05/04 10:20:40;;;;;;;;;;;;;;;;;;5049786;28;19921;-85
2022/05/04 10:23:27;;;;;;;;;;;;;;;;;;5039521;28;19913;-84
2022/05/04 10:26:14;;;;;;;;;;;;;;;;;;5061743;28;19912;-85
2022/05/04 10:32:05;;;;;;;;;;;;;;;;;;5052180;28;19923;-84
2022/05/04 10:34:52;;;;;;;;;;;;;;;;;;5053545;28;19943;-84
2022/05/04 10:37:39;;;;;;;;;;;;;;;;;;5052185;28;19919;-84
2022/05/04 10:40:25;;;;;;;;;;;;;;;;;;5034939;28;19921;-83
2022/05/04 10:43:12;;;;;;;;;;;;;;;;;;5042342;28;19920;-85
2022/05/04 10:45:58;;;;;;;;;;;;;;;;;;5070970;28;19916;-84
2022/05/04 10:48:45;;;;;;;;;;;;;;;;;;5038324;28;19924;-85
2022/05/04 10:51:31;;;;;;;;;;;;;;;;;;5041334;28;19997;-82
2022/05/04 10:54:18;;;;;;;;;;;;;;;;;;5053823;28;19909;-82
2022/05/04 10:57:05;;;;;;;;;;;;;;;;;;5057114;28;19917;-82
2022/05/04 10:59:51;;;;;;;;;;;;;;;;;;5047054;28;19927;-83
2022/05/04 11:02:38;;;;;;;;;;;;;;;;;;5046593;28;19909;-81
2022/05/04 11:05:24;;;;;;;;;;;;;;;;;;5041863;28;19916;-82
2022/05/04 11:08:11;;;;;;;;;;;;;;;;;;5043367;28;19943;-83
2022/05/04 11:10:57;;;;;;;;;;;;;;;;;;5052428;28;19909;-83
2022/05/04 11:13:44;;;;;;;;;;;;;;;;;;5046866;28;19919;-82
2022/05/04 11:16:30;;;;;;;;;;;;;;;;;;5044939;28;20424;-82
2022/05/04 11:19:17;;;;;;;;;;;;;;;;;;5046410;28;20584;-82
2022/05/04 11:22:04;;;;;;;;;;;;;;;;;;5038258;28;19923;-83
2022/05/04 11:24:50;;;;;;;;;;;;;;;;;;5027324;28;20392;-82
2022/05/04 11:27:37;;;;;;;;;;;;;;;;;;5032029;28;19913;-83
2022/05/04 11:30:23;;;;;;;;;;;;;;;;;;5036327;28;19924;-83
2022/05/04 11:33:10;;;;;;;;;;;;;;;;;;5036572;28;19925;-84
2022/05/04 11:35:56;;;;;;;;;;;;;;;;;;5044202;28;20430;-84
2022/05/04 11:38:43;;;;;;;;;;;;;;;;;;5034982;28;19932;-83
2022/05/04 11:41:29;;;;;;;;;;;;;;;;;;5049095;28;19925;-83
2022/05/04 11:44:17;;;;;;;;;;;;;;;;;;5044879;28;19993;-83
2022/05/04 11:47:04;;;;;;;;;;;;;;;;;;5045185;28;19908;-84
2022/05/04 11:49:50;;;;;;;;;;;;;;;;;;5042396;28;19912;-84
2022/05/04 11:52:37;;;;;;;;;;;;;;;;;;5050304;28;20020;-85
2022/05/04 11:55:23;;;;;;;;;;;;;;;;;;5053682;28;19923;-84
2022/05/04 11:58:10;;;;;;;;;;;;;;;;;;5057015;28;19920;-84
2022/05/04 12:00:56;;;;;;;;;;;;;;;;;;5046270;28;19917;-85
2022/05/04 12:03:43;;;;;;;;;;;;;;;;;;5039841;28;20245;-85
2022/05/04 12:06:29;;;;;;;;;;;;;;;;;;5039070;28;19924;-86
2022/05/04 12:09:19;;;;;;;;;;;;;;;;;;5038964;28;19909;-85
2022/05/04 12:12:05;;;;;;;;;;;;;;;;;;5046594;28;19913;-85
2022/05/04 12:14:54;;;;;;;;;;;;;;;;;;5036669;28;19920;-85
2022/05/04 12:17:41;;;;;;;;;;;;;;;;;;5044388;28;20023;-85
2022/05/04 12:20:27;;;;;;;;;;;;;;;;;;5041002;28;19918;-84
2022/05/04 12:23:14;;;;;;;;;;;;;;;;;;5048291;28;20274;-85
2022/05/04 12:26:01;;;;;;;;;;;;;;;;;;5037388;28;19917;-86
2022/05/04 12:34:58;;;;;;;;;;;;;;;;;;5049816;28;20360;-86
2022/05/04 12:37:44;;;;;;;;;;;;;;;;;;5038805;28;19913;-85
2022/05/04 12:40:31;;;;;;;;;;;;;;;;;;5047394;28;19917;-85
2022/05/04 12:43:24;;;;;;;;;;;;;;;;;;5040074;28;20212;-86
2022/05/04 12:46:11;;;;;;;;;;;;;;;;;;5051318;28;20035;-86
2022/05/04 12:48:57;;;;;;;;;;;;;;;;;;5051375;28;19909;-85
2022/05/04 12:51:43;;;;;;;;;;;;;;;;;;5041011;28;20387;-86
2022/05/04 12:54:30;;;;;;;;;;;;;;;;;;5058605;28;19917;-86
2022/05/04 12:57:16;;;;;;;;;;;;;;;;;;5045481;28;19913;-85
2022/05/04 13:00:04;;;;;;;;;;;;;;;;;;5049383;28;19932;-84
2022/05/04 13:02:51;;;;;;;;;;;;;;;;;;5054802;28;20154;-86
2022/05/04 13:05:37;;;;;;;;;;;;;;;;;;5052592;28;19923;-86
2022/05/04 13:08:24;;;;;;;;;;;;;;;;;;5043437;28;19909;-85
2022/05/04 13:11:10;;;;;;;;;;;;;;;;;;5036568;28;19917;-85
2022/05/04 13:13:57;;;;;;;;;;;;;;;;;;5038664;28;20365;-85
2022/05/04 13:16:43;;;;;;;;;;;;;;;;;;5036304;28;19919;-85
2022/05/04 13:19:30;;;;;;;;;;;;;;;;;;5042977;28;20374;-85
2022/05/04 13:22:16;;;;;;;;;;;;;;;;;;5046288;28;19920;-85
2022/05/04 13:25:03;;;;;;;;;;;;;;;;;;5046416;28;20378;-86
2022/05/04 13:27:49;;;;;;;;;;;;;;;;;;5042521;28;19912;-87
2022/05/04 13:30:35;;;;;;;;;;;;;;;;;;5040218;28;19932;-86
2022/05/04 13:33:23;;;;;;;;;;;;;;;;;;5041902;28;19917;-87
2022/05/04 13:36:10;;;;;;;;;;;;;;;;;;5041183;28;19932;-86
2022/05/04 13:38:56;;;;;;;;;;;;;;;;;;5054158;28;19909;-88
2022/05/04 13:41:45;;;;;;;;;;;;;;;;;;5052591;28;20361;-88
2022/05/04 13:44:31;;;;;;;;;;;;;;;;;;5039273;28;19910;-87
2022/05/04 13:47:18;;;;;;;;;;;;;;;;;;5048622;28;19913;-86
2022/05/04 13:50:04;;;;;;;;;;;;;;;;;;5047080;28;20266;-87
2022/05/04 13:55:56;;;;;;;;;;;;;;;;;;5047853;28;19913;-85
2022/05/04 13:58:43;;;;;;;;;;;;;;;;;;5043898;28;19909;-87
2022/05/04 14:01:29;;;;;;;;;;;;;;;;;;5041554;28;20372;-86
2022/05/04 14:04:16;;;;;;;;;;;;;;;;;;5048802;28;19915;-87
2022/05/04 14:07:02;;;;;;;;;;;;;;;;;;5052373;28;19924;-87
2022/05/04 14:09:49;;;;;;;;;;;;;;;;;;5041358;28;19909;-86
2022/05/04 14:12:35;;;;;;;;;;;;;;;;;;5043915;28;19951;-87
2022/05/04 14:15:22;;;;;;;;;;;;;;;;;;5040443;28;19913;-87
2022/05/04 14:18:09;;;;;;;;;;;;;;;;;;5050801;28;19913;-87
2022/05/04 14:20:57;;;;;;;;;;;;;;;;;;5047824;28;19932;-86
2022/05/04 14:23:44;;;;;;;;;;;;;;;;;;5053802;28;19912;-85
2022/05/04 14:26:32;;;;;;;;;;;;;;;;;;5052260;28;19923;-87
2022/05/04 14:29:19;;;;;;;;;;;;;;;;;;5049586;28;19913;-86
2022/05/04 14:32:06;;;;;;;;;;;;;;;;;;5054891;28;19919;-86
2022/05/04 14:34:52;;;;;;;;;;;;;;;;;;5054775;28;19927;-86
2022/05/04 14:37:39;;;;;;;;;;;;;;;;;;5052647;28;19913;-86
2022/05/04 14:40:25;;;;;;;;;;;;;;;;;;5040046;28;19928;-87
2022/05/04 14:43:12;;;;;;;;;;;;;;;;;;5037951;28;19917;-86
2022/05/04 14:45:58;;;;;;;;;;;;;;;;;;5047170;28;19924;-86
2022/05/04 14:48:45;;;;;;;;;;;;;;;;;;5037587;28;19928;-87
2022/05/04 14:51:31;;;;;;;;;;;;;;;;;;5036321;28;19909;-86
2022/05/04 14:54:18;;;;;;;;;;;;;;;;;;5047595;28;19916;-87
2022/05/04 14:57:04;;;;;;;;;;;;;;;;;;5053737;28;19925;-84
2022/05/04 14:59:51;;;;;;;;;;;;;;;;;;5043689;28;19916;-83
2022/05/04 15:05:01;;;;;;;;;;;;;;;;;;5048369;28;19923;-85
2022/05/04 15:05:44;;;;;;;;;;;;;;;;;;5042970;28;19913;-84
2022/05/04 15:08:30;;;;;;;;;;;;;;;;;;5063487;28;20497;-82
2022/05/04 15:11:17;;;;;;;;;;;;;;;;;;5060870;28;19908;-83
2022/05/04 15:14:05;;;;;;;;;;;;;;;;;;5049170;28;19924;-84
2022/05/04 15:16:52;;;;;;;;;;;;;;;;;;5049788;28;19916;-84
2022/05/04 15:19:38;;;;;;;;;;;;;;;;;;5036807;28;20364;-85
2022/05/04 15:22:25;;;;;;;;;;;;;;;;;;5049149;28;19908;-83
2022/05/04 15:25:11;;;;;;;;;;;;;;;;;;5050875;28;20295;-84
2022/05/04 15:27:58;;;;;;;;;;;;;;;;;;5049089;28;19909;-84
2022/05/04 15:30:44;;;;;;;;;;;;;;;;;;5057142;28;19931;-84
2022/05/04 15:33:31;;;;;;;;;;;;;;;;;;5062188;28;19917;-83
2022/05/04 15:36:18;;;;;;;;;;;;;;;;;;5043409;28;19913;-84
2022/05/04 15:39:04;;;;;;;;;;;;;;;;;;5048130;28;19909;-84
2022/05/04 15:41:52;;;;;;;;;;;;;;;;;;5039028;28;19920;-84
2022/05/04 15:44:38;;;;;;;;;;;;;;;;;;5045599;28;19917;-86
2022/05/04 15:47:25;;;;;;;;;;;;;;;;;;5038032;28;19915;-84
2022/05/04 15:50:11;;;;;;;;;;;;;;;;;;5047824;28;19920;-84
2022/05/04 15:52:57;;;;;;;;;;;;;;;;;;5043577;28;19982;-82
2022/05/04 15:55:44;;;;;;;;;;;;;;;;;;5038573;28;19915;-83
2022/05/04 15:58:30;;;;;;;;;;;;;;;;;;5046281;28;19917;-83
2022/05/04 16:01:17;;;;;;;;;;;;;;;;;;5057803;28;19976;-83
2022/05/04 16:04:05;;;;;;;;;;;;;;;;;;5045123;28;20269;-83
2022/05/04 16:06:51;;;;;;;;;;;;;;;;;;5043267;28;20330;-85
2022/05/04 16:09:37;;;;;;;;;;;;;;;;;;5037921;28;19920;-84
2022/05/04 16:12:24;;;;;;;;;;;;;;;;;;5034399;28;19948;-83
2022/05/04 16:15:10;;;;;;;;;;;;;;;;;;5040738;28;20404;-84
2022/05/04 16:24:09;;;;;;;;;;;;;;;;;;5034814;28;19914;-83
2022/05/04 16:26:57;;;;;;;;;;;;;;;;;;5055101;28;19916;-83
2022/05/04 16:29:44;;;;;;;;;;;;;;;;;;5036447;28;19913;-83
2022/05/04 16:32:31;;;;;;;;;;;;;;;;;;5031358;28;19919;-84
2022/05/04 16:35:19;;;;;;;;;;;;;;;;;;5040952;28;19927;-83
2022/05/04 16:38:05;;;;;;;;;;;;;;;;;;5034963;28;19944;-82
2022/05/04 16:40:52;;;;;;;;;;;;;;;;;;5032406;28;20027;-83
2022/05/04 16:43:39;;;;;;;;;;;;;;;;;;5042867;28;20271;-89
2022/05/04 16:46:25;;;;;;;;;;;;;;;;;;5060923;28;19917;-80
2022/05/04 16:49:12;;;;;;;;;;;;;;;;;;5045705;28;20293;-81
2022/05/04 16:51:58;;;;;;;;;;;;;;;;;;5016920;28;19924;-81
2022/05/04 16:54:45;;;;;;;;;;;;;;;;;;5043020;28;19916;-81
2022/05/04 16:57:31;;;;;;;;;;;;;;;;;;5036099;28;19925;-79
2022/05/04 17:00:18;;;;;;;;;;;;;;;;;;5025464;28;20304;-80
2022/05/04 17:03:05;;;;;;;;;;;;;;;;;;5034898;28;19920;-81
2022/05/04 17:05:51;;;;;;;;;;;;;;;;;;5033841;28;19921;-82
2022/05/04 17:08:38;;;;;;;;;;;;;;;;;;5037660;28;19936;-82
2022/05/04 17:11:25;;;;;;;;;;;;;;;;;;5037141;28;19913;-81
2022/05/04 17:14:13;;;;;;;;;;;;;;;;;;5039977;28;19915;-80
2022/05/04 17:16:59;;;;;;;;;;;;;;;;;;5036152;28;20365;-81
2022/05/04 17:19:46;;;;;;;;;;;;;;;;;;5043136;28;19931;-80
2022/05/04 17:22:32;;;;;;;;;;;;;;;;;;5040311;28;19917;-81
2022/05/04 17:25:18;;;;;;;;;;;;;;;;;;5038391;28;19912;-80
2022/05/04 17:28:05;;;;;;;;;;;;;;;;;;5035923;28;19916;-80
2022/05/04 17:30:51;;;;;;;;;;;;;;;;;;5039937;28;19939;-81
2022/05/04 17:36:43;;;;;;;;;;;;;;;;;;5039760;28;19920;-79
2022/05/04 17:39:29;;;;;;;;;;;;;;;;;;5036272;28;19909;-80
2022/05/04 17:42:19;;;;;;;;;;;;;;;;;;5037167;28;20964;-79
2022/05/04 17:45:05;;;;;;;;;;;;;;;;;;5036267;28;20692;-83
2022/05/04 17:47:52;;;;;;;;;;;;;;;;;;5038535;28;19916;-81
2022/05/04 17:50:38;;;;;;;;;;;;;;;;;;5035534;28;19913;-81
2022/05/04 17:53:25;;;;;;;;;;;;;;;;;;5042871;28;19923;-81
2022/05/04 17:56:11;;;;;;;;;;;;;;;;;;5029531;28;19924;-81
2022/05/04 17:58:58;;;;;;;;;;;;;;;;;;5039734;28;19913;-81
2022/05/04 18:05:03;;;;;;;;;;;;;;;;;;5027771;28;19919;-80
2022/05/04 18:07:50;;;;;;;;;;;;;;;;;;5036616;28;19924;-82
2022/05/04 18:10:37;;;;;;;;;;;;;;;;;;5043300;28;19917;-82
2022/05/04 18:13:23;;;;;;;;;;;;;;;;;;5037042;28;20369;-80
2022/05/04 18:16:10;;;;;;;;;;;;;;;;;;5039212;28;19923;-85
2022/05/04 18:18:56;;;;;;;;;;;;;;;;;;5042999;28;19909;-84
2022/05/04 18:21:43;;;;;;;;;;;;;;;;;;5063279;28;19917;-80
2022/05/04 18:24:30;;;;;;;;;;;;;;;;;;5038134;28;19924;-82
2022/05/04 18:27:17;;;;;;;;;;;;;;;;;;5042378;28;19928;-82
2022/05/04 18:30:03;;;;;;;;;;;;;;;;;;5055709;28;19917;-81
2022/05/04 18:32:50;;;;;;;;;;;;;;;;;;5048941;28;19931;-85
2022/05/04 18:35:36;;;;;;;;;;;;;;;;;;5047858;28;19928;-84
2022/05/04 18:38:24;;;;;;;;;;;;;;;;;;5056965;28;20395;-78
2022/05/04 18:41:10;;;;;;;;;;;;;;;;;;5027862;28;20507;-78
2022/05/04 18:43:57;;;;;;;;;;;;;;;;;;5045503;28;19913;-79
2022/05/04 18:46:45;;;;;;;;;;;;;;;;;;5041219;28;19920;-78
2022/05/04 18:49:32;;;;;;;;;;;;;;;;;;5039886;28;19928;-78
2022/05/04 18:52:18;;;;;;;;;;;;;;;;;;5037283;28;19916;-77
2022/05/04 18:55:06;;;;;;;;;;;;;;;;;;5034509;28;19917;-79
2022/05/04 18:57:53;;;;;;;;;;;;;;;;;;5046736;28;19916;-76
2022/05/04 19:00:40;;;;;;;;;;;;;;;;;;5032075;28;19936;-80
2022/05/04 19:03:28;;;;;;;;;;;;;;;;;;5043832;28;19920;-79
2022/05/04 19:06:15;;;;;;;;;;;;;;;;;;5058992;28;19913;-79
2022/05/04 19:09:01;;;;;;;;;;;;;;;;;;5039860;28;19932;-80
2022/05/04 19:11:48;;;;;;;;;;;;;;;;;;5035501;28;20005;-85
2022/05/04 19:14:34;;;;;;;;;;;;;;;;;;5054278;28;19917;-78
2022/05/04 19:17:21;;;;;;;;;;;;;;;;;;5043839;28;19921;-79
2022/05/04 19:20:07;;;;;;;;;;;;;;;;;;5055512;28;19913;-79
2022/05/04 19:22:54;;;;;;;;;;;;;;;;;;5043836;28;20001;-79
2022/05/04 19:25:40;;;;;;;;;;;;;;;;;;5038148;28;19917;-79
2022/05/04 19:28:28;;;;;;;;;;;;;;;;;;5036545;28;19917;-78
2022/05/04 19:31:15;;;;;;;;;;;;;;;;;;5047882;28;20315;-80
2022/05/04 19:34:01;;;;;;;;;;;;;;;;;;5037130;28;19945;-78
2022/05/04 19:36:48;;;;;;;;;;;;;;;;;;5037180;28;19917;-79
2022/05/04 19:39:34;;;;;;;;;;;;;;;;;;5036185;28;19924;-79
2022/05/04 19:42:21;;;;;;;;;;;;;;;;;;5043953;28;19938;-79
2022/05/04 19:45:07;;;;;;;;;;;;;;;;;;5039409;28;19908;-80
2022/05/04 19:47:54;;;;;;;;;;;;;;;;;;5064661;28;19913;-87
2022/05/04 19:50:40;;;;;;;;;;;;;;;;;;5045721;28;19920;-85
2022/05/04 19:53:27;;;;;;;;;;;;;;;;;;5048202;28;19924;-82
2022/05/04 19:56:14;;;;;;;;;;;;;;;;;;5030646;28;19947;-82